Time;durP1;ratioP1;P1;durP2;ratioP2;P2;SDS_P1;SDS_P2;PMS_P1;PMS_P2;Temp;Humidity;BMP_temperature;BMP_pressure;BME280_temperature;BME280_humidity;BME280_pressure;Samples;Min_cycle;Max_cycle;Signal;HPM_P1;HPM_P2
2022/06/20 00:01:47;;;;;;;12.02;5.20;;;;;;;29.89;41.91;98783.56;4158585;28;20252;-71
2022/06/20 00:03:49;;;;;;;10.68;4.78;;;;;;;29.34;43.45;98779.88;4156856;28;20302;-71
2022/06/20 00:05:52;;;;;;;11.07;5.00;;;;;;;28.66;43.78;98759.59;4157322;28;20228;-71
2022/06/20 00:07:53;;;;;;;10.00;4.68;;;;;;;29.15;43.17;98760.00;4153655;28;20236;-71
2022/06/20 00:09:55;;;;;;;10.75;4.43;;;;;;;30.13;41.06;98767.59;4159535;28;20236;-70
2022/06/20 00:11:57;;;;;;;8.52;4.45;;;;;;;30.10;41.49;98781.91;4152317;28;20303;-71
2022/06/20 00:13:58;;;;;;;9.82;4.68;;;;;;;29.24;43.62;98791.84;4160315;28;20240;-70
2022/06/20 00:16:01;;;;;;;12.38;4.95;;;;;;;29.17;43.06;98753.09;4151973;28;20237;-71
2022/06/20 00:18:06;;;;;;;12.93;4.68;;;;;;;29.04;43.29;98767.63;4160882;28;20234;-71
2022/06/20 00:20:14;;;;;;;10.85;5.00;;;;;;;28.26;44.89;98751.91;4161081;28;20799;-71
2022/06/20 00:22:15;;;;;;;10.30;4.38;;;;;;;28.34;44.67;98736.69;4161385;28;20236;-71
2022/06/20 00:24:17;;;;;;;10.25;5.25;;;;;;;29.22;42.92;98735.78;4150667;28;20298;-70
2022/06/20 00:26:19;;;;;;;13.20;4.55;;;;;;;29.05;43.58;98748.16;4160406;28;20263;-70
2022/06/20 00:28:21;;;;;;;7.65;4.38;;;;;;;29.54;42.54;98767.63;4160317;28;20286;-70
2022/06/20 00:30:23;;;;;;;12.82;4.80;;;;;;;29.36;42.71;98774.09;4160720;28;20233;-70
2022/06/20 00:32:24;;;;;;;11.70;5.10;;;;;;;29.71;41.93;98777.91;4161153;28;20229;-70
2022/06/20 00:34:26;;;;;;;11.10;4.68;;;;;;;29.69;42.39;98784.81;4160099;28;20287;-71
2022/06/20 00:36:28;;;;;;;12.75;4.90;;;;;;;29.03;43.78;98783.22;4159842;28;20259;-70
2022/06/20 00:38:30;;;;;;;11.52;4.50;;;;;;;28.64;44.60;98768.09;4160813;28;20233;-71
2022/06/20 00:40:39;;;;;;;12.00;4.82;;;;;;;29.55;42.53;98765.69;4154156;28;20720;-71
2022/06/20 00:42:40;;;;;;;10.15;5.45;;;;;;;29.67;42.55;98782.38;4133028;28;20229;-71
2022/06/20 00:44:47;;;;;;;9.07;5.25;;;;;;;28.80;44.20;98789.72;4159665;28;20262;-70
2022/06/20 00:46:53;;;;;;;12.48;4.38;;;;;;;29.24;43.18;98769.94;4159583;28;20721;-70
2022/06/20 00:49:04;;;;;;;12.25;4.65;;;;;;;29.74;41.99;98779.25;4147359;28;20225;-70
2022/06/20 00:51:23;;;;;;;10.65;5.28;;;;;;;28.87;43.95;98781.94;4156007;28;20240;-71
2022/06/20 00:53:27;;;;;;;13.75;5.95;;;;;;;29.22;43.03;98766.72;4153278;28;20486;-70
2022/06/20 00:55:39;;;;;;;9.82;4.88;;;;;;;29.44;42.90;98767.88;4157701;28;20240;-70
2022/06/20 00:57:48;;;;;;;11.55;4.88;;;;;;;28.96;43.50;98769.16;4160779;28;20283;-71
2022/06/20 00:59:57;;;;;;;8.85;4.78;;;;;;;28.85;44.08;98763.09;4158793;28;20751;-70
2022/06/20 01:02:00;;;;;;;10.88;5.00;;;;;;;29.38;42.68;98763.63;4160336;28;20731;-70
2022/06/20 01:04:30;;;;;;;8.95;4.57;;;;;;;28.06;44.43;98763.16;4159762;28;20994;-70
2022/06/20 01:06:39;;;;;;;11.88;5.10;;;;;;;29.18;42.86;98759.38;4159097;28;20249;-70
2022/06/20 01:08:44;;;;;;;9.60;4.72;;;;;;;29.28;42.62;98750.97;4151224;28;20274;-70
2022/06/20 01:10:52;;;;;;;11.35;5.32;;;;;;;29.29;42.57;98755.34;4160272;28;20236;-70
2022/06/20 01:13:02;;;;;;;14.82;4.97;;;;;;;28.32;44.64;98763.53;4158995;28;20239;-71
2022/06/20 01:15:17;;;;;;;10.20;4.75;;;;;;;28.92;43.62;98735.31;4156580;28;20753;-70
2022/06/20 01:17:31;;;;;;;11.88;4.85;;;;;;;29.10;43.09;98739.00;4157571;28;20279;-70
2022/06/20 01:20:00;;;;;;;9.50;4.63;;;;;;;28.94;43.10;98762.38;4160049;28;20839;-70
2022/06/20 01:22:12;;;;;;;9.38;5.03;;;;;;;28.62;44.00;98761.34;4135600;28;20245;-70
2022/06/20 01:24:30;;;;;;;11.35;4.55;;;;;;;28.37;44.38;98763.44;4150871;28;20237;-70
2022/06/20 01:26:37;;;;;;;12.98;5.50;;;;;;;28.59;43.99;98754.53;4159270;28;20225;-71
2022/06/20 01:28:42;;;;;;;13.43;5.47;;;;;;;28.65;43.73;98775.22;4159811;28;20240;-68
2022/06/20 01:30:45;;;;;;;10.88;4.68;;;;;;;28.58;44.36;98752.09;4159320;28;20233;-70
2022/06/20 01:32:47;;;;;;;11.50;4.70;;;;;;;28.55;44.61;98753.53;4159170;28;20258;-70
2022/06/20 01:34:50;;;;;;;12.65;4.75;;;;;;;29.11;43.22;98768.00;4159547;28;20294;-70
2022/06/20 01:39:17;;;;;;;13.88;4.78;;;;;;;27.63;46.00;98759.47;4151127;28;20234;-70
2022/06/20 01:43:39;;;;;;;10.40;4.35;;;;;;;28.07;45.52;98738.25;4158273;28;20252;-70
2022/06/20 01:46:00;;;;;;;9.82;4.50;;;;;;;27.71;45.62;98751.72;4159278;28;20235;-70
2022/06/20 01:48:12;;;;;;;9.05;4.55;;;;;;;28.00;45.26;98752.31;4151838;28;20232;-70
2022/06/20 01:50:13;;;;;;;8.27;4.40;;;;;;;27.85;45.66;98755.28;4147113;28;20233;-70
2022/06/20 01:52:27;;;;;;;10.80;4.85;;;;;;;28.98;43.68;98755.97;4159570;28;20224;-70
2022/06/20 01:54:33;;;;;;;9.45;4.88;;;;;;;28.16;45.49;98773.94;4165619;28;20233;-70
2022/06/20 01:56:36;;;;;;;11.75;4.82;;;;;;;28.30;45.10;98765.75;4142800;28;20225;-70
2022/06/20 01:58:46;;;;;;;14.20;5.20;;;;;;;28.73;43.70;98780.00;4145330;28;20233;-71
2022/06/20 02:00:48;;;;;;;13.05;5.03;;;;;;;29.17;43.25;98791.44;4169696;28;20682;-70
2022/06/20 02:02:54;;;;;;;13.30;4.68;;;;;;;28.45;44.22;98792.81;4157390;28;20255;-70
2022/06/20 02:04:56;;;;;;;8.63;4.68;;;;;;;28.29;45.23;98783.25;4158716;28;20232;-70
2022/06/20 02:07:01;;;;;;;13.10;4.90;;;;;;;28.70;43.97;98791.56;4157431;28;20363;-71
2022/06/20 02:09:06;;;;;;;8.25;4.53;;;;;;;27.94;45.81;98804.59;4150839;28;20275;-71
2022/06/20 02:11:19;;;;;;;10.05;4.53;;;;;;;28.06;45.61;98774.09;4146843;28;20294;-71
2022/06/20 02:13:23;;;;;;;9.02;5.13;;;;;;;28.17;44.99;98786.47;4159350;28;20290;-71
2022/06/20 02:15:26;;;;;;;11.57;4.95;;;;;;;29.18;43.13;98794.97;4150684;28;20229;-70
2022/06/20 02:17:49;;;;;;;9.93;4.35;;;;;;;29.13;42.83;98811.50;4158678;28;20228;-70
2022/06/20 02:19:53;;;;;;;13.52;5.40;;;;;;;29.03;42.80;98816.06;4140646;28;20229;-70
2022/06/20 02:22:01;;;;;;;9.80;4.60;;;;;;;28.72;43.44;98824.88;4158458;28;20736;-70
2022/06/20 02:24:14;;;;;;;13.25;4.82;;;;;;;28.89;43.01;98818.00;4157832;28;20286;-69
2022/06/20 02:26:18;;;;;;;11.02;5.00;;;;;;;29.08;42.67;98829.63;4158256;28;20224;-70
2022/06/20 02:28:32;;;;;;;11.40;5.22;;;;;;;28.59;43.28;98847.50;4157945;28;20228;-70
2022/06/20 02:30:34;;;;;;;8.88;4.80;;;;;;;27.60;44.97;98844.69;4157755;28;20221;-69
2022/06/20 02:32:40;;;;;;;11.13;5.00;;;;;;;26.91;46.20;98855.06;4158186;28;20229;-72
2022/06/20 02:34:44;;;;;;;13.98;5.45;;;;;;;27.46;44.92;98873.78;4157258;28;20267;-70
2022/06/20 02:36:47;;;;;;;13.57;6.90;;;;;;;27.01;46.12;98873.22;4159553;28;20781;-70
2022/06/20 02:38:49;;;;;;;11.23;7.30;;;;;;;26.89;46.28;98881.78;4158348;28;20777;-69
2022/06/20 02:40:55;;;;;;;12.15;7.05;;;;;;;27.29;45.60;98877.00;4144117;28;20233;-70
2022/06/20 02:43:13;;;;;;;10.32;5.82;;;;;;;27.49;45.55;98856.03;4158543;28;20267;-70
2022/06/20 02:45:17;;;;;;;11.98;6.63;;;;;;;27.30;46.10;98866.91;4157305;28;20258;-70
2022/06/20 02:47:19;;;;;;;11.85;5.55;;;;;;;27.27;45.19;98895.59;4153384;28;20241;-70
2022/06/20 02:49:29;;;;;;;13.20;5.45;;;;;;;28.10;43.88;98898.88;4146680;28;20251;-72
2022/06/20 02:51:36;;;;;;;11.73;5.25;;;;;;;28.16;44.40;98897.72;4156563;28;20306;-72
2022/06/20 02:53:42;;;;;;;11.13;5.53;;;;;;;27.69;44.36;98912.31;4158085;28;20236;-72
2022/06/20 02:55:46;;;;;;;10.43;5.45;;;;;;;27.28;45.29;98918.22;4150075;28;20283;-71
2022/06/20 02:57:52;;;;;;;10.25;4.60;;;;;;;26.73;46.21;98897.50;4158120;28;20228;-71
2022/06/20 02:59:55;;;;;;;10.32;4.40;;;;;;;27.03;45.42;98899.09;4159342;28;20236;-72
2022/06/20 03:02:04;;;;;;;6.57;3.90;;;;;;;27.06;45.44;98904.03;4158135;28;20964;-71
2022/06/20 03:04:07;;;;;;;8.02;4.63;;;;;;;26.85;46.07;98906.09;4157161;28;20285;-71
2022/06/20 03:06:19;;;;;;;11.25;4.68;;;;;;;26.93;46.10;98895.69;4157900;28;20448;-71
2022/06/20 03:08:21;;;;;;;10.15;5.10;;;;;;;27.18;45.47;98889.13;4151539;28;20278;-71
2022/06/20 03:10:40;;;;;;;8.98;4.28;;;;;;;27.91;44.32;98898.06;4149479;28;20311;-71
2022/06/20 03:12:43;;;;;;;10.70;4.20;;;;;;;27.27;45.14;98906.50;4150194;28;20233;-71
2022/06/20 03:14:55;;;;;;;10.55;4.53;;;;;;;26.84;46.05;98915.41;4157073;28;20278;-71
2022/06/20 03:16:58;;;;;;;10.18;4.15;;;;;;;27.86;44.00;98909.09;4157827;28;20229;-72
2022/06/20 03:19:01;;;;;;;9.98;4.53;;;;;;;27.36;45.11;98925.78;4158919;28;20236;-72
2022/06/20 03:21:03;;;;;;;12.15;4.30;;;;;;;27.59;44.55;98914.03;4158168;28;20228;-71
2022/06/20 03:23:23;;;;;;;8.48;4.43;;;;;;;27.50;44.56;98928.63;4156867;28;20240;-71
2022/06/20 03:25:25;;;;;;;7.00;3.88;;;;;;;27.24;45.15;98932.47;4157488;28;20232;-71
2022/06/20 03:27:30;;;;;;;9.93;4.30;;;;;;;26.97;45.55;98932.19;4159573;28;20854;-71
2022/06/20 03:29:37;;;;;;;8.43;3.97;;;;;;;27.30;44.81;98940.59;4157425;28;20228;-70
2022/06/20 03:31:39;;;;;;;8.23;4.35;;;;;;;27.19;45.23;98943.44;4158528;28;20237;-71
2022/06/20 03:33:41;;;;;;;12.88;4.53;;;;;;;27.56;44.90;98963.75;4157826;28;20631;-70
2022/06/20 03:35:50;;;;;;;10.68;4.47;;;;;;;27.02;45.07;98970.31;4148135;28;20877;-77
2022/06/20 03:37:52;;;;;;;10.20;4.38;;;;;;;27.26;45.22;98960.28;4154025;28;20240;-71
2022/06/20 03:39:54;;;;;;;9.38;3.70;;;;;;;26.95;45.34;98953.50;4155109;28;20232;-71
2022/06/20 03:41:56;;;;;;;8.80;4.10;;;;;;;27.41;44.95;98928.44;4156125;28;20667;-71
2022/06/20 03:44:06;;;;;;;8.25;4.10;;;;;;;27.76;44.09;98934.59;4155326;28;20856;-70
2022/06/20 03:46:27;;;;;;;11.02;4.30;;;;;;;27.61;44.28;98921.97;4152332;28;20244;-70
2022/06/20 03:48:36;;;;;;;9.48;4.32;;;;;;;27.85;43.88;98932.84;4158048;28;20290;-70
2022/06/20 03:50:44;;;;;;;8.55;4.50;;;;;;;27.80;44.52;98941.09;4158087;28;20656;-70
2022/06/20 03:52:57;;;;;;;13.93;4.22;;;;;;;27.45;44.84;98948.63;4149280;28;20732;-70
2022/06/20 03:55:15;;;;;;;8.93;3.90;;;;;;;27.92;43.85;98925.09;4156342;28;20645;-70
2022/06/20 03:57:23;;;;;;;9.27;4.70;;;;;;;28.11;43.34;98927.03;4154708;28;20228;-70
2022/06/20 03:59:34;;;;;;;13.15;4.50;;;;;;;27.62;44.13;98957.16;4146707;28;21071;-71
2022/06/20 04:01:51;;;;;;;9.65;3.97;;;;;;;27.87;43.84;98936.09;4159725;28;20228;-70
2022/06/20 04:04:10;;;;;;;9.18;3.90;;;;;;;27.55;44.63;98937.56;4160395;28;20379;-70
2022/06/20 04:06:16;;;;;;;13.40;4.05;;;;;;;26.34;46.30;98929.16;4159281;28;20232;-70
2022/06/20 04:08:17;;;;;;;9.68;3.92;;;;;;;26.44;45.73;98928.25;4153162;28;20233;-70
2022/06/20 04:11:00;;;;;;;7.97;4.60;;;;;;;26.71;45.81;98926.97;4161341;28;20833;-70
2022/06/20 04:13:17;;;;;;;9.73;4.60;;;;;;;27.08;44.92;98925.56;4154676;28;20232;-70
2022/06/20 04:15:24;;;;;;;10.00;4.20;;;;;;;26.27;46.36;98936.84;4155512;28;20230;-70
2022/06/20 04:20:02;;;;;;;9.40;4.03;;;;;;;27.26;43.73;98927.53;4160399;28;20238;-70
2022/06/20 04:22:19;;;;;;;12.48;3.63;;;;;;;26.36;44.66;98952.59;4161434;28;20236;-70
2022/06/20 04:24:31;;;;;;;7.03;3.55;;;;;;;27.24;43.49;98945.28;4159871;28;20694;-70
2022/06/20 04:26:38;;;;;;;7.50;3.65;;;;;;;26.59;44.69;98957.34;4157336;28;20239;-70
2022/06/20 04:29:00;;;;;;;8.10;3.53;;;;;;;26.22;44.75;98966.84;4161670;28;20232;-70
2022/06/20 04:31:25;;;;;;;12.48;3.42;;;;;;;26.68;44.03;98954.81;4160147;28;20745;-70
2022/06/20 04:33:35;;;;;;;10.48;3.40;;;;;;;27.06;43.59;98946.84;4154832;28;20233;-70
2022/06/20 04:35:40;;;;;;;8.60;3.40;;;;;;;26.73;44.11;98954.75;4151794;28;20758;-70
2022/06/20 04:37:54;;;;;;;8.43;3.35;;;;;;;27.11;43.40;98945.97;4160481;28;20278;-70
2022/06/20 04:40:14;;;;;;;9.13;3.00;;;;;;;27.25;43.63;98953.19;4161219;28;20232;-69
2022/06/20 04:42:24;;;;;;;9.13;3.67;;;;;;;26.77;44.28;98952.28;4149570;28;20701;-70
2022/06/20 04:44:43;;;;;;;9.82;2.97;;;;;;;27.39;43.23;98949.78;4160114;28;20232;-70
2022/06/20 04:47:19;;;;;;;5.93;3.13;;;;;;;27.32;43.55;98963.78;4160480;28;20232;-70
2022/06/20 04:49:21;;;;;;;9.40;3.45;;;;;;;27.39;43.30;98977.06;4146215;28;20232;-70
2022/06/20 04:51:45;;;;;;;8.90;3.88;;;;;;;26.92;43.49;98965.78;4144058;28;20281;-70
2022/06/20 04:53:48;;;;;;;8.57;3.28;;;;;;;26.44;44.39;98990.94;4145385;28;20229;-70
2022/06/20 04:55:57;;;;;;;9.95;3.13;;;;;;;27.00;44.21;98983.44;4156242;28;20241;-70
2022/06/20 04:58:02;;;;;;;9.27;3.45;;;;;;;26.94;44.31;98984.59;4148895;28;20301;-70
2022/06/20 05:00:06;;;;;;;13.82;3.17;;;;;;;27.10;45.15;98977.91;4152995;28;20229;-70
2022/06/20 05:02:14;;;;;;;9.82;3.60;;;;;;;27.11;44.38;98976.00;4160273;28;20282;-70
2022/06/20 05:04:26;;;;;;;10.23;3.53;;;;;;;27.11;44.38;98976.00;4159081;28;20235;-70
2022/06/20 05:06:30;;;;;;;10.25;3.17;;;;;;;26.60;45.17;98991.66;4160012;28;20318;-70
2022/06/20 05:08:37;;;;;;;15.45;3.42;;;;;;;26.99;44.78;98987.25;4159898;28;20232;-70
2022/06/20 05:10:55;;;;;;;11.77;4.15;;;;;;;27.28;43.99;98983.72;4160215;28;20240;-70
2022/06/20 05:13:04;;;;;;;7.85;2.83;;;;;;;27.91;42.61;98986.31;4153769;28;20695;-70
2022/06/20 05:15:29;;;;;;;5.38;3.00;;;;;;;28.13;42.10;98982.19;4156459;28;20225;-70
2022/06/20 05:17:34;;;;;;;10.27;3.17;;;;;;;27.61;42.92;99004.69;4148899;28;20224;-70
2022/06/20 05:19:40;;;;;;;7.70;3.10;;;;;;;27.19;43.47;99002.66;4160094;28;20282;-70
2022/06/20 05:21:47;;;;;;;12.45;3.45;;;;;;;27.61;43.20;98992.94;4159285;28;20291;-70
2022/06/20 05:23:57;;;;;;;7.57;2.67;;;;;;;27.21;43.84;98984.06;4159815;28;20617;-70
2022/06/20 05:26:01;;;;;;;11.85;3.45;;;;;;;26.97;44.01;98986.75;4155727;28;21318;-70
2022/06/20 05:28:10;;;;;;;10.60;3.10;;;;;;;27.09;43.51;98981.72;4144398;28;20318;-70
2022/06/20 05:30:25;;;;;;;8.05;3.00;;;;;;;27.91;42.28;98985.50;4156792;28;20286;-70
2022/06/20 05:32:41;;;;;;;7.45;3.10;;;;;;;26.93;44.57;99002.88;4158797;28;20228;-70
2022/06/20 05:35:06;;;;;;;9.88;3.08;;;;;;;27.72;43.53;98977.25;4143123;28;20237;-70
2022/06/20 05:37:34;;;;;;;8.65;3.28;;;;;;;27.67;43.41;98980.03;4160132;28;20237;-70
2022/06/20 05:40:08;;;;;;;11.00;3.25;;;;;;;28.15;41.91;98990.94;4159733;28;20615;-70
2022/06/20 05:42:14;;;;;;;7.03;3.28;;;;;;;27.61;43.67;98988.28;4154463;28;20291;-70
2022/06/20 05:44:16;;;;;;;11.00;3.33;;;;;;;27.20;43.46;98993.38;4155879;28;20228;-70
2022/06/20 05:46:25;;;;;;;8.35;3.13;;;;;;;27.18;43.13;99003.75;4159199;28;20282;-70
2022/06/20 05:48:33;;;;;;;11.32;3.90;;;;;;;27.49;42.64;99017.91;4149115;28;20236;-70
2022/06/20 05:50:54;;;;;;;11.63;3.25;;;;;;;27.50;43.50;99005.88;4157325;28;20924;-70
2022/06/20 05:52:57;;;;;;;7.80;2.97;;;;;;;27.10;43.61;99010.66;4150753;28;20721;-70
2022/06/20 05:55:15;;;;;;;13.35;3.65;;;;;;;27.91;42.17;98997.22;4159227;28;20275;-70
2022/06/20 05:57:21;;;;;;;13.27;3.20;;;;;;;27.54;43.78;99006.13;4153965;28;20228;-70
2022/06/20 05:59:27;;;;;;;7.28;3.53;;;;;;;27.61;43.18;98995.69;4143433;28;20232;-70
2022/06/20 06:01:32;;;;;;;12.68;5.07;;;;;;;27.19;44.03;99002.66;4150788;28;20235;-70
2022/06/20 06:03:40;;;;;;;8.43;4.10;;;;;;;27.73;42.61;98995.28;4158312;28;20248;-70
2022/06/20 06:05:46;;;;;;;10.10;4.28;;;;;;;28.04;42.10;99008.53;4158944;28;20239;-70
2022/06/20 06:08:22;;;;;;;12.40;4.75;;;;;;;28.45;41.23;99022.47;4159003;28;20259;-70
2022/06/20 06:10:51;;;;;;;8.75;3.55;;;;;;;27.18;43.55;99034.59;4159209;28;20235;-70
2022/06/20 06:13:05;;;;;;;8.52;3.70;;;;;;;27.93;42.70;99022.31;4158670;28;20330;-70
2022/06/20 06:15:28;;;;;;;8.20;3.40;;;;;;;27.41;43.28;99032.97;4153923;28;20801;-70
2022/06/20 06:17:45;;;;;;;9.27;3.55;;;;;;;27.78;42.65;99025.25;4147188;28;20258;-70
2022/06/20 06:19:56;;;;;;;7.95;3.15;;;;;;;27.99;42.64;99034.03;4157693;28;20642;-70
2022/06/20 06:22:05;;;;;;;7.25;3.00;;;;;;;27.83;42.81;99051.69;4150715;28;20759;-70
2022/06/20 06:24:12;;;;;;;5.97;3.10;;;;;;;27.70;43.02;99053.19;4159153;28;20267;-70
2022/06/20 06:26:16;;;;;;;8.43;3.42;;;;;;;27.16;44.20;99058.63;4158580;28;20279;-70
2022/06/20 06:28:22;;;;;;;8.55;3.50;;;;;;;26.72;44.86;99059.47;4158449;28;20267;-70
2022/06/20 06:30:32;;;;;;;6.82;3.20;;;;;;;25.75;45.71;99058.00;4159268;28;20224;-70
2022/06/20 06:32:41;;;;;;;9.10;3.40;;;;;;;26.07;45.50;99043.22;4159656;28;20232;-70
2022/06/20 06:34:49;;;;;;;10.32;3.90;;;;;;;26.09;45.14;99057.38;4156901;28;20232;-70
2022/06/20 06:36:56;;;;;;;4.65;3.10;;;;;;;27.06;43.84;99053.25;4159086;28;20289;-70
2022/06/20 06:39:12;;;;;;;9.48;3.70;;;;;;;26.44;44.48;99072.72;4159512;28;20282;-70
2022/06/20 06:41:25;;;;;;;8.70;3.72;;;;;;;26.30;44.88;99088.03;4158706;28;20232;-70
2022/06/20 06:43:40;;;;;;;6.70;2.80;;;;;;;26.23;45.37;99084.81;4158673;28;20251;-70
2022/06/20 06:45:42;;;;;;;9.93;4.00;;;;;;;25.30;46.91;99108.66;4157903;28;20241;-70
2022/06/20 06:47:52;;;;;;;10.18;3.50;;;;;;;26.00;46.30;99102.59;4158090;28;20659;-70
2022/06/20 06:49:57;;;;;;;7.22;3.20;;;;;;;25.89;46.45;99090.91;4148899;28;20247;-70
2022/06/20 06:52:13;;;;;;;8.27;3.58;;;;;;;25.93;46.59;99094.69;4144078;28;20229;-70
2022/06/20 06:54:23;;;;;;;8.27;3.75;;;;;;;25.86;46.73;99107.78;4158729;28;20389;-70
2022/06/20 06:56:42;;;;;;;10.10;3.53;;;;;;;27.24;44.94;99082.56;4158667;28;20699;-70
2022/06/20 06:58:51;;;;;;;8.30;3.92;;;;;;;26.62;46.14;99095.81;4142638;28;20225;-70
2022/06/20 07:01:01;;;;;;;6.53;3.60;;;;;;;26.85;45.94;99075.19;4159422;28;20231;-70
2022/06/20 07:03:12;;;;;;;6.32;4.10;;;;;;;27.54;45.00;99075.19;4155694;28;20295;-70
2022/06/20 07:05:22;;;;;;;8.85;4.10;;;;;;;27.50;44.84;99098.72;4155415;28;20243;-70
2022/06/20 07:07:33;;;;;;;9.77;4.10;;;;;;;27.69;45.09;99078.91;4153425;28;20737;-70
2022/06/20 07:09:40;;;;;;;8.35;5.18;;;;;;;27.02;46.29;99104.81;4158562;28;20228;-70
2022/06/20 07:11:59;;;;;;;15.75;4.80;;;;;;;27.53;45.61;99089.13;4157441;28;20286;-70
2022/06/20 07:14:24;;;;;;;10.05;4.68;;;;;;;27.61;45.58;99102.97;4147108;28;20261;-70
2022/06/20 07:16:54;;;;;;;11.77;4.65;;;;;;;27.11;46.01;99109.69;4140806;28;20244;-70
2022/06/20 07:18:57;;;;;;;10.18;4.88;;;;;;;27.77;45.21;99065.41;4161810;28;20685;-70
2022/06/20 07:20:58;;;;;;;15.90;5.50;;;;;;;27.61;46.53;99074.88;4162443;28;20678;-70
2022/06/20 07:23:03;;;;;;;7.65;4.50;;;;;;;28.32;44.36;99078.69;4161418;28;20786;-70
2022/06/20 07:25:06;;;;;;;10.93;5.10;;;;;;;27.83;45.56;99128.19;4161813;28;20864;-70
2022/06/20 07:27:11;;;;;;;9.07;5.18;;;;;;;28.08;45.15;99133.34;4162193;28;20298;-70
2022/06/20 07:29:32;;;;;;;8.82;4.63;;;;;;;28.12;44.96;99111.72;4161235;28;20232;-70
2022/06/20 07:31:45;;;;;;;12.65;5.50;;;;;;;27.74;45.92;99100.69;4162179;28;20290;-70
2022/06/20 07:33:51;;;;;;;8.10;4.70;;;;;;;28.07;45.35;99103.59;4161523;28;20665;-70
2022/06/20 07:35:56;;;;;;;10.75;5.32;;;;;;;28.23;44.88;99107.81;4160455;28;20869;-70
2022/06/20 07:38:56;;;;;;;10.45;4.78;;;;;;;28.65;45.04;99103.41;4162437;28;20869;-70
2022/06/20 07:41:07;;;;;;;11.43;5.55;;;;;;;28.20;45.92;99100.19;4143732;28;20237;-70
2022/06/20 07:43:15;;;;;;;9.50;5.45;;;;;;;27.44;46.87;99110.78;4161756;28;20306;-70
2022/06/20 07:45:26;;;;;;;11.30;5.30;;;;;;;28.24;45.96;99092.19;4161170;28;20263;-70
2022/06/20 07:47:37;;;;;;;13.02;6.10;;;;;;;28.10;46.52;99092.88;4154890;28;20233;-70
2022/06/20 07:49:52;;;;;;;8.80;4.80;;;;;;;28.45;45.48;99085.38;4150219;28;20237;-70
2022/06/20 07:51:59;;;;;;;13.68;6.05;;;;;;;28.49;45.20;99085.59;4153526;28;20237;-70
2022/06/20 07:54:13;;;;;;;10.63;5.65;;;;;;;29.42;43.74;99085.00;4159952;28;20237;-70
2022/06/20 07:56:20;;;;;;;11.07;5.45;;;;;;;29.11;43.83;99093.72;4162348;28;20292;-70
2022/06/20 07:58:29;;;;;;;9.93;5.30;;;;;;;28.86;44.64;99084.78;4161209;28;20714;-70
2022/06/20 08:00:41;;;;;;;8.82;4.80;;;;;;;28.74;45.32;99095.38;4154390;28;20225;-70
2022/06/20 08:02:48;;;;;;;14.50;5.18;;;;;;;28.66;44.62;99096.00;4145835;28;20260;-70
2022/06/20 08:04:56;;;;;;;10.52;5.38;;;;;;;29.24;44.48;99089.44;4160832;28;20232;-70
2022/06/20 08:07:05;;;;;;;9.85;5.97;;;;;;;28.77;44.51;99111.19;4158607;28;20228;-70
2022/06/20 08:09:10;;;;;;;9.68;5.47;;;;;;;28.39;45.51;99118.53;4157007;28;20239;-70
2022/06/20 08:11:39;;;;;;;11.65;5.55;;;;;;;28.87;44.55;99105.56;4162136;28;20286;-70
2022/06/20 08:13:49;;;;;;;11.80;5.45;;;;;;;28.89;44.68;99097.06;4159568;28;20240;-70
2022/06/20 08:16:04;;;;;;;11.18;6.32;;;;;;;28.98;44.52;99097.19;4146549;28;20241;-70
2022/06/20 08:18:06;;;;;;;13.85;5.32;;;;;;;28.66;45.55;99106.94;4160930;28;20232;-70
2022/06/20 08:20:09;;;;;;;11.95;6.22;;;;;;;28.10;45.98;99109.28;4160426;28;20233;-70
2022/06/20 08:22:31;;;;;;;9.80;6.07;;;;;;;27.98;46.73;99100.69;4161702;28;20236;-70
2022/06/20 08:24:39;;;;;;;12.18;5.63;;;;;;;28.02;46.60;99103.66;4159942;28;20699;-70
2022/06/20 08:26:55;;;;;;;10.68;5.90;;;;;;;28.35;45.77;99107.38;4149659;28;20236;-70
2022/06/20 08:29:00;;;;;;;12.65;6.35;;;;;;;28.72;46.19;99101.13;4155868;28;20232;-70
2022/06/20 08:31:17;;;;;;;12.30;6.20;;;;;;;28.44;45.75;99104.78;4159818;28;20367;-70
2022/06/20 08:33:46;;;;;;;12.98;6.05;;;;;;;28.22;46.43;99116.28;4160319;28;20271;-70
2022/06/20 08:35:53;;;;;;;16.15;6.07;;;;;;;27.92;46.46;99096.38;4159713;28;20855;-70
2022/06/20 08:38:08;;;;;;;16.42;6.18;;;;;;;28.40;45.74;99090.09;4161305;28;20294;-70
2022/06/20 08:40:21;;;;;;;13.38;6.22;;;;;;;28.14;46.35;99101.31;4160993;28;20262;-70
2022/06/20 08:42:48;;;;;;;10.52;5.82;;;;;;;28.31;46.34;99109.88;4152934;28;20233;-70
2022/06/20 08:45:10;;;;;;;14.07;5.63;;;;;;;25.75;50.65;99112.47;4151308;28;20241;-70
2022/06/20 08:47:14;;;;;;;13.27;5.63;;;;;;;27.79;47.73;99086.97;4152984;28;20586;-70
2022/06/20 08:49:40;;;;;;;11.68;5.53;;;;;;;27.90;47.25;99109.53;4151620;28;20249;-70
2022/06/20 08:52:13;;;;;;;14.20;5.40;;;;;;;27.94;46.76;99114.13;4159560;28;20233;-70
2022/06/20 08:54:23;;;;;;;12.32;4.95;;;;;;;28.66;46.23;99115.97;4159646;28;20664;-70
2022/06/20 08:56:49;;;;;;;11.23;4.70;;;;;;;27.90;47.53;99125.91;4151583;28;20286;-70
2022/06/20 08:59:24;;;;;;;8.50;5.22;;;;;;;27.46;48.40;99124.94;4146373;28;20284;-70
2022/06/20 09:01:43;;;;;;;13.25;4.70;;;;;;;27.17;48.29;99133.13;4160195;28;20231;-70
2022/06/20 09:04:00;;;;;;;14.25;5.18;;;;;;;27.51;47.63;99121.38;4159005;28;20713;-70
2022/06/20 09:06:08;;;;;;;12.27;5.13;;;;;;;28.29;46.37;99114.84;4159850;28;20236;-70
2022/06/20 09:08:48;;;;;;;11.20;4.97;;;;;;;28.11;46.28;99129.25;4151977;28;20227;-70
2022/06/20 09:11:10;;;;;;;14.68;5.10;;;;;;;28.54;45.80;99121.06;4142453;28;20240;-70
2022/06/20 09:13:12;;;;;;;18.55;5.78;;;;;;;27.85;46.60;99145.91;4142274;28;20241;-70
2022/06/20 09:15:20;;;;;;;15.00;5.13;;;;;;;28.77;45.55;99135.00;4143194;28;20233;-70
2022/06/20 09:17:43;;;;;;;15.70;5.50;;;;;;;26.25;50.02;99156.19;4150271;28;20236;-70
2022/06/20 09:20:02;;;;;;;10.98;4.82;;;;;;;28.04;47.12;99136.94;4159213;28;20243;-70
2022/06/20 09:22:27;;;;;;;11.25;5.47;;;;;;;29.10;45.43;99139.44;4139397;28;20233;-70
2022/06/20 09:24:58;;;;;;;12.48;5.50;;;;;;;29.04;45.81;99148.00;4140225;28;20233;-70
2022/06/20 09:27:07;;;;;;;10.93;5.68;;;;;;;29.04;45.67;99153.50;4151372;28;20236;-70
2022/06/20 09:29:22;;;;;;;10.63;5.28;;;;;;;29.13;45.11;99148.97;4143058;28;20271;-70
2022/06/20 09:31:35;;;;;;;10.95;5.32;;;;;;;28.79;46.19;99157.41;4157530;28;20283;-70
2022/06/20 09:33:45;;;;;;;11.93;5.57;;;;;;;29.45;45.06;99137.22;4158216;28;20712;-70
2022/06/20 09:35:47;;;;;;;9.57;5.38;;;;;;;29.88;44.11;99147.19;4158563;28;20240;-70
2022/06/20 09:38:14;;;;;;;8.57;5.68;;;;;;;29.29;45.24;99146.84;4174778;28;20348;-70
2022/06/20 09:40:28;;;;;;;9.00;4.97;;;;;;;29.35;44.87;99144.81;4160465;28;20895;-70
2022/06/20 09:42:50;;;;;;;10.38;5.55;;;;;;;29.24;45.55;99144.19;4159078;28;20282;-70
2022/06/20 09:45:03;;;;;;;10.23;4.85;;;;;;;29.47;44.55;99145.97;4158283;28;20667;-70
2022/06/20 09:47:07;;;;;;;9.77;5.10;;;;;;;29.31;45.37;99155.56;4156928;28;20307;-70
2022/06/20 09:49:35;;;;;;;8.05;5.80;;;;;;;29.38;44.49;99136.00;4147348;28;20295;-70
2022/06/20 09:51:58;;;;;;;9.73;5.45;;;;;;;29.46;44.39;99146.28;4157663;28;20228;-70
2022/06/20 09:54:41;;;;;;;11.23;5.43;;;;;;;29.62;44.11;99144.88;4159532;28;20311;-70
2022/06/20 09:57:00;;;;;;;10.63;4.60;;;;;;;29.21;44.64;99142.03;4159015;28;20286;-70
2022/06/20 09:59:17;;;;;;;8.85;3.65;;;;;;;29.48;43.69;99147.59;4159969;28;20775;-70
2022/06/20 10:01:33;;;;;;;14.45;3.97;;;;;;;29.49;43.15;99153.91;4159643;28;20232;-70
2022/06/20 10:03:42;;;;;;;7.55;3.60;;;;;;;29.21;43.54;99142.03;4158509;28;20317;-70
2022/06/20 10:05:57;;;;;;;6.65;3.03;;;;;;;28.84;43.29;99149.13;4158691;28;20388;-70
2022/06/20 10:08:06;;;;;;;7.25;3.13;;;;;;;29.03;43.42;99147.19;4146872;28;20291;-70
2022/06/20 10:10:20;;;;;;;6.32;2.75;;;;;;;28.64;43.72;99136.53;4158930;28;20235;-70
2022/06/20 10:12:36;;;;;;;5.65;3.10;;;;;;;28.79;44.02;99146.47;4158468;28;20279;-71
2022/06/20 10:15:06;;;;;;;5.28;2.75;;;;;;;29.27;43.72;99136.19;4141819;28;20606;-70
2022/06/20 10:17:34;;;;;;;4.90;2.90;;;;;;;28.94;43.10;99146.25;4152199;28;20232;-70
2022/06/20 10:20:02;;;;;;;6.40;2.42;;;;;;;29.36;43.14;99136.31;4149203;28;20232;-71
2022/06/20 10:22:15;;;;;;;7.47;3.15;;;;;;;29.21;42.94;99152.97;4138079;28;20268;-70